Latest Weather Observations for Wilsons Promontory

IDV60801

Issued at 6:02 am EST Saturday 4 July 2015 (issued every 30 minutes, with the page automatically refreshed every 10 minutes)

About weather observations | Map of weather stations | Latest weather observations for VIC | Other Formats
Station Details ID: 085096 Name: WILSONS PROMONTORY LIGHTHOUSE Lat: -39.13 Lon: 146.42 Height: 95.0 m
Data from the previous 72 hours. | See also: Recent months at Wilsons Promontory
Date/Time
EST
Temp
°C
App
Temp
°C
Dew
Point
Rel
Hum
%
Delta-T
°C
Wind Press
QNH
hPa
Press
MSL
hPa
Rain
since 9 am
mm
Dir
 
Spd
km/h
Gust
km/h
Spd
kts
Gust
kts
04/06:00am 9.0 0.2 5.7 80 1.5 WNW 41 87 22 47 1016.6 1016.7 0.2
04/05:48am 9.0 -1.5 5.7 80 1.5 NW 50 91 27 49 1016.6 - 0.2
04/05:30am 8.9 0.1 5.6 80 1.5 WNW 41 69 22 37 1017.4 - 0.2
04/05:00am 8.9 -0.3 5.5 79 1.5 WNW 43 72 23 39 1017.7 - 0.2
04/04:30am 9.1 -0.6 5.7 79 1.6 WNW 46 74 25 40 1017.5 - 0.2
04/04:00am 8.9 -0.9 5.3 78 1.6 WNW 46 70 25 38 1017.8 - 0.2
04/03:30am 8.7 2.2 4.9 77 1.7 WNW 28 70 15 38 1018.1 - 0.2
04/03:10am 8.8 2.4 5.0 77 1.7 NW 28 59 15 32 1018.5 - 0.2
04/03:00am 8.8 2.7 5.0 77 1.7 NW 26 54 14 29 1018.8 1018.9 0.2
04/02:30am 8.9 -2.2 4.7 75 1.9 NW 52 72 28 39 1018.6 - 0.2
04/02:29am 8.9 -3.1 4.7 75 1.9 NW 57 72 31 39 1018.5 - 0.2
04/02:00am 8.9 1.4 4.5 74 2.0 WNW 33 74 18 40 1019.3 - 0.2
04/01:30am 9.0 0.8 4.6 74 2.0 WNW 37 72 20 39 1019.5 - 0.2
04/01:00am 8.9 1.3 4.1 72 2.1 WNW 33 61 18 33 1020.0 - 0.2
04/12:30am 9.1 1.7 4.1 71 2.2 WNW 32 61 17 33 1020.2 - 0.2
04/12:00am 9.1 1.5 4.1 71 2.2 WNW 33 65 18 35 1020.9 1021.0 0.2
 
Date/Time
EST
Temp
°C
App
Temp
°C
Dew
Point
Rel
Hum
%
Delta-T
°C
Wind Press
QNH
hPa
Press
MSL
hPa
Rain
since 9 am
mm
Dir
 
Spd
km/h
Gust
km/h
Spd
kts
Gust
kts
03/11:30pm 9.1 1.7 4.1 71 2.2 WNW 32 59 17 32 1020.7 - 0.2
03/11:00pm 9.1 1.1 3.9 70 2.3 WNW 35 67 19 36 1020.8 - 0.2
03/10:30pm 9.0 2.0 4.0 71 2.2 WNW 30 65 16 35 1021.4 - 0.2
03/10:22pm 9.0 2.4 4.2 72 2.1 WNW 28 54 15 29 1021.3 - 0.2
03/10:00pm 8.9 2.7 4.1 72 2.1 NNW 26 50 14 27 1021.7 - 0.2
03/09:55pm 8.9 2.3 4.3 73 2.0 NNW 28 50 15 27 1021.4 - 0.2
03/09:30pm 9.1 3.3 4.5 73 2.0 WNW 24 50 13 27 1021.9 - 0.2
03/09:06pm 9.1 2.6 4.7 74 2.0 WNW 28 48 15 26 1022.0 - 0.2
03/09:00pm 9.1 3.0 4.7 74 2.0 WNW 26 46 14 25 1022.2 1022.3 0.2
03/08:41pm 9.2 2.7 4.8 74 2.0 W 28 57 15 31 1022.2 - 0.2
03/08:30pm 9.3 4.0 5.1 75 1.9 WNW 22 44 12 24 1022.5 - 0.2
03/08:00pm 9.3 3.6 5.1 75 1.9 WNW 24 50 13 27 1022.5 - 0.2
03/07:30pm 9.4 2.2 4.8 73 2.1 W 32 50 17 27 1022.5 - 0.2
03/07:00pm 9.5 2.3 5.1 74 2.0 W 32 57 17 31 1022.6 - 0.2
03/06:30pm 10.1 3.3 5.1 71 2.3 W 30 56 16 30 1022.4 - 0.2
03/06:29pm 10.1 3.7 5.1 71 2.3 W 28 56 15 30 1022.4 - 0.2
03/06:00pm 10.0 4.0 5.2 72 2.2 W 26 41 14 22 1022.6 1022.7 0.2
03/05:30pm 10.0 3.7 5.8 75 1.9 W 28 46 15 25 1022.6 - 0.2
03/05:01pm 10.0 3.2 6.9 81 1.5 W 32 50 17 27 1022.5 - 0.2
03/05:00pm 9.9 2.9 6.8 81 1.5 W 33 50 18 27 1022.5 - 0.2
03/04:42pm 9.7 3.0 7.3 85 1.1 W 32 50 17 27 1022.5 - 0.2
03/04:30pm 9.5 3.2 7.3 86 1.0 W 30 43 16 23 1022.9 - 0.2
03/04:06pm 9.7 3.3 6.8 82 1.4 W 30 48 16 26 1022.8 - 0.2
03/04:00pm 9.5 2.5 6.2 80 1.5 W 32 46 17 25 1022.9 - 0.2
03/03:41pm 9.6 2.8 6.7 82 1.4 W 32 50 17 27 1023.2 - 0.2
03/03:30pm 9.3 2.3 6.7 84 1.2 W 33 50 18 27 1023.1 - 0.2
03/03:00pm 8.9 1.4 6.2 83 1.2 W 35 56 19 30 1023.2 1023.3 0.2
03/02:30pm 9.1 2.6 6.7 85 1.1 W 30 54 16 29 1023.2 - 0.2
03/02:17pm 8.8 2.7 6.8 87 0.9 W 28 54 15 29 1023.3 - 0.2
03/02:00pm 8.4 1.4 6.0 85 1.1 W 32 46 17 25 1023.6 - 0.2
03/01:57pm 8.5 1.5 6.0 84 1.1 W 32 50 17 27 1023.6 - 0.2
03/01:30pm 9.8 3.2 6.2 78 1.7 W 30 43 16 23 1023.7 - 0.2
03/01:00pm 9.9 3.7 6.1 77 1.8 W 28 43 15 23 1024.0 - 0.2
03/12:30pm 10.5 4.2 5.9 73 2.1 W 28 41 15 22 1024.3 - 0.2
03/12:00pm 10.7 4.8 5.9 72 2.2 W 26 41 14 22 1024.7 1024.9 0.2
03/11:30am 10.5 3.4 6.3 75 2.0 W 33 46 18 25 1025.1 - 0.2
03/11:00am 10.4 4.8 7.1 80 1.6 W 26 39 14 21 1025.6 - 0.2
03/10:30am 10.2 4.5 6.7 79 1.7 W 26 35 14 19 1025.9 - 0.2
03/10:00am 9.9 5.6 7.2 83 1.3 W 19 32 10 17 1026.1 - 0.2
03/09:30am 8.6 3.2 6.4 86 1.0 W 24 37 13 20 1025.9 - 0.2
03/09:00am 9.3 3.9 6.4 82 1.3 WNW 24 35 13 19 1025.8 1026.0 0.2
03/08:30am 8.5 3.9 5.6 82 1.3 W 19 30 10 16 1025.5 - 0.2
03/08:16am 8.2 1.9 5.5 83 1.2 WNW 28 37 15 20 1025.5 - 0.2
03/08:05am 8.1 0.0 5.4 83 1.2 W 37 56 20 30 1025.6 - 0.2
03/08:00am 8.0 -1.3 5.1 82 1.3 WSW 43 57 23 31 1025.2 - 0.2
03/07:53am 8.6 -1.6 5.4 80 1.4 WSW 48 57 26 31 1025.2 - 0.2
03/07:44am 8.9 3.6 5.1 77 1.7 W 22 39 12 21 1025.5 - 0.2
03/07:30am 9.6 1.5 5.2 74 2.0 WSW 37 48 20 26 1025.1 - 0.2
03/07:08am 9.5 2.9 4.3 70 2.3 WSW 28 50 15 27 1025.1 - 0.2
03/07:00am 9.4 -1.3 4.6 72 2.1 SW 50 57 27 31 1024.7 - 0.2
03/06:49am 9.3 -0.9 5.1 75 1.9 SW 48 59 26 32 1024.4 - 0.2
03/06:32am 9.6 3.2 5.4 75 1.9 W 28 50 15 27 1024.8 - 0.2
03/06:30am 9.7 3.3 5.1 73 2.1 W 28 39 15 21 1025.0 - 0.2
03/06:22am 9.7 2.3 4.9 72 2.2 W 33 46 18 25 1024.8 - 0.2
03/06:00am 9.6 0.0 4.6 71 2.2 SW 44 52 24 28 1024.5 1024.6 0.2
03/05:30am 9.4 -1.3 4.6 72 2.1 WSW 50 61 27 33 1024.1 - 0.2
03/05:00am 9.3 -1.7 4.9 74 2.0 SW 52 59 28 32 1024.0 - 0.2
03/04:47am 9.3 1.6 5.3 76 1.8 WSW 35 54 19 29 1024.2 - 0.2
03/04:46am 9.2 1.4 5.0 75 1.9 W 35 46 19 25 1024.4 - 0.2
03/04:30am 9.2 -0.7 4.6 73 2.1 SW 46 54 25 29 1024.0 - 0.2
03/04:19am 9.4 -0.8 3.4 66 2.6 WSW 46 65 25 35 1024.1 - 0.2
03/04:00am 9.4 -2.8 3.6 67 2.5 WSW 57 65 31 35 1024.1 - 0.2
03/03:30am 9.3 -3.7 3.3 66 2.6 WSW 61 67 33 36 1023.7 - 0.2
03/03:00am 9.3 -2.0 3.7 68 2.4 SW 52 70 28 38 1024.4 1024.5 0.2
03/02:30am 9.5 -3.0 4.1 69 2.4 WSW 59 69 32 37 1024.2 - 0.2
03/02:00am 9.4 -2.1 4.2 70 2.3 SW 54 67 29 36 1024.3 - 0.2
03/01:39am 9.3 -2.5 4.7 73 2.1 SW 56 74 30 40 1023.8 - 0.2
03/01:30am 9.3 -2.5 4.7 73 2.1 SW 56 65 30 35 1024.1 - 0.2
03/01:03am 9.3 0.3 4.5 72 2.1 SW 41 59 22 32 1024.5 - 0.2
03/01:00am 9.2 -0.2 4.2 71 2.2 SW 43 59 23 32 1024.3 - 0.2
03/12:30am 9.3 2.4 4.5 72 2.1 SW 30 67 16 36 1024.4 - 0.2
03/12:01am 9.4 -2.8 3.8 68 2.5 SW 57 76 31 41 1024.1 - 0.2
03/12:00am 9.5 -2.7 3.9 68 2.5 SW 57 74 31 40 1024.0 1024.1 0.2
 
Date/Time
EST
Temp
°C
App
Temp
°C
Dew
Point
Rel
Hum
%
Delta-T
°C
Wind Press
QNH
hPa
Press
MSL
hPa
Rain
since 9 am
mm
Dir
 
Spd
km/h
Gust
km/h
Spd
kts
Gust
kts
02/11:51pm 9.4 -3.0 4.4 71 2.2 SW 59 69 32 37 1024.6 - 0.2
02/11:45pm 9.3 1.8 4.5 72 2.1 SW 33 61 18 33 1024.6 - 0.2
02/11:30pm 9.3 -2.6 4.3 71 2.2 SW 56 67 30 36 1024.7 - 0.2
02/11:00pm 9.2 -3.8 3.6 68 2.4 SW 61 70 33 38 1024.3 - 0.2
02/10:30pm 9.2 -2.8 4.0 70 2.3 SW 56 65 30 35 1024.6 - 0.2
02/10:00pm 9.4 -3.0 4.4 71 2.2 SW 59 76 32 41 1024.1 - 0.2
02/09:57pm 9.5 -2.5 4.5 71 2.2 SW 57 76 31 41 1024.2 - 0.2
02/09:30pm 9.4 -5.1 3.6 67 2.5 SW 69 80 37 43 1023.5 - 0.2
02/09:12pm 9.3 -4.9 3.3 66 2.6 SW 67 85 36 46 1023.9 - 0.2
02/09:00pm 9.2 -5.2 4.2 71 2.2 WSW 69 78 37 42 1023.5 1023.6 0.2
02/08:30pm 9.4 -4.3 4.0 69 2.4 SW 65 80 35 43 1023.1 - 0.2
02/08:00pm 9.6 -3.1 5.2 74 2.0 SW 61 80 33 43 1022.7 - 0.2
02/07:59pm 9.6 -3.1 5.0 73 2.1 SW 61 80 33 43 1023.0 - 0.2
02/07:54pm 9.4 -4.2 4.2 70 2.3 SW 65 82 35 44 1022.7 - 0.2
02/07:50pm 9.7 1.6 5.3 74 2.0 SW 37 82 20 44 1022.7 - 0.2
02/07:49pm 9.7 -3.4 5.1 73 2.1 SW 63 82 34 44 1022.7 - 0.2
02/07:43pm 9.6 -4.7 4.8 72 2.2 SW 69 78 37 42 1022.4 - 0.2
02/07:38pm 9.6 -0.7 4.6 71 2.2 SW 48 82 26 44 1022.3 - 0.2
02/07:30pm 9.7 -4.9 3.9 67 2.6 SW 70 82 38 44 1022.3 - 0.2
02/07:21pm 9.8 -4.9 3.5 65 2.8 SW 70 89 38 48 1022.3 - 0.2
02/07:00pm 9.9 -5.0 4.5 69 2.4 SW 72 82 39 44 1021.9 - 0.2
02/06:30pm 9.8 -4.1 4.6 70 2.3 SW 67 82 36 44 1021.6 - 0.2
02/06:05pm 9.8 -4.3 5.6 75 1.9 SW 69 87 37 47 1021.2 - 0.2
02/06:00pm 9.9 -5.7 4.7 70 2.3 SW 76 87 41 47 1021.1 1021.2 0.2
02/05:33pm 10.1 -3.3 5.3 72 2.2 SW 65 83 35 45 1021.2 - 0.2
02/05:30pm 10.0 -3.6 4.6 69 2.4 SW 65 82 35 44 1021.4 - 0.2
02/05:23pm 9.8 -3.5 3.8 66 2.6 SW 63 82 34 44 1021.0 - 0.2
02/05:04pm 10.1 -4.2 4.9 70 2.4 SW 69 78 37 42 1020.9 - 0.2
02/05:00pm 10.2 0.8 5.2 71 2.3 SW 44 74 24 40 1020.9 - 0.2
02/04:34pm 10.1 -3.4 5.1 71 2.3 SW 65 83 35 45 1020.6 - 0.2
02/04:30pm 10.0 -4.2 5.2 72 2.2 SW 69 83 37 45 1020.8 - 0.2
02/04:18pm 9.9 -4.4 5.7 75 1.9 WSW 70 78 38 42 1020.6 - 0.2
02/04:00pm 9.2 -1.2 5.9 80 1.5 W 50 82 27 44 1020.7 - 0.2
02/03:51pm 9.8 -2.2 5.0 72 2.2 WSW 57 82 31 44 1020.1 - 0.2
02/03:50pm 9.7 -2.1 4.7 71 2.2 WSW 56 78 30 42 1020.4 - 0.2
02/03:30pm 9.8 -6.5 5.0 72 2.2 SW 80 93 43 50 1019.7 - 0.2
02/03:00pm 9.9 -6.1 4.5 69 2.4 WSW 78 89 42 48 1019.2 1019.3 0.2
02/02:30pm 10.0 -6.1 4.2 67 2.6 SW 78 91 42 49 1018.4 - 0.2
02/02:00pm 9.8 -5.6 3.8 66 2.6 SW 74 85 40 46 1018.3 - 0.2
02/01:44pm 9.9 -5.1 4.1 67 2.6 SW 72 91 39 49 1017.9 - 0.2
02/01:30pm 9.8 -6.6 4.8 71 2.3 SW 80 89 43 48 1017.6 - 0.2
02/01:12pm 9.7 -4.7 4.9 72 2.2 SW 70 89 38 48 1017.4 - 0.2
02/01:00pm 9.5 -4.9 5.1 74 2.0 SW 70 83 38 45 1017.8 - 0.2
02/12:58pm 9.5 -5.7 5.1 74 2.0 SW 74 85 40 46 1017.7 - 0.2
02/12:56pm 9.6 -0.6 5.4 75 1.9 SW 48 93 26 50 1017.5 - 0.2
02/12:54pm 9.5 -5.7 5.1 74 2.0 SW 74 93 40 50 1017.4 - 0.2
02/12:30pm 9.3 -6.2 5.3 76 1.8 SW 76 91 41 49 1017.1 - 0.2
02/12:09pm 9.3 -6.9 5.5 77 1.7 SW 80 98 43 53 1016.8 - 0.2
02/12:00pm 9.6 -7.7 5.0 73 2.1 SW 85 98 46 53 1016.4 1016.5 0.2
02/11:58am 9.5 -9.0 4.7 72 2.2 SW 91 98 49 53 1015.9 - 0.2
02/11:31am 8.6 -5.5 5.4 80 1.4 WSW 69 87 37 47 1016.7 - 0.2
02/11:30am 8.7 -5.6 5.4 80 1.5 WSW 70 87 38 47 1016.4 - 0.2
02/11:15am 9.1 -3.5 5.7 79 1.6 WSW 61 80 33 43 1016.5 - 0.2
02/11:06am 8.6 -4.8 5.5 81 1.4 WSW 65 76 35 41 1016.4 - 0.2
02/11:00am 8.4 -1.3 5.9 84 1.1 W 46 67 25 36 1016.6 - 0.2
02/10:49am 7.8 -2.7 5.6 86 1.0 WSW 50 93 27 50 1016.6 - 0.2
02/10:45am 8.5 -6.4 6.3 86 1.0 SW 74 93 40 50 1015.7 - 0.2
02/10:41am 8.2 -6.4 6.2 87 0.9 SW 72 85 39 46 1016.1 - 0.2
02/10:30am 7.2 -2.1 5.7 90 0.7 SSW 44 74 24 40 1016.1 - 0.2
02/10:18am 7.7 -0.3 5.5 86 1.0 S 37 56 20 30 1014.7 - 0.2
02/10:14am 8.1 1.8 5.7 85 1.1 ESE 28 95 15 51 1015.0 - 0.2
02/10:10am 8.1 2.5 5.6 84 1.1 NNE 24 95 13 51 1015.0 - 0.2
02/10:08am 8.8 -1.5 6.4 85 1.1 WSW 50 95 27 51 1015.2 - 0.2
02/10:00am 8.7 -0.3 6.5 86 1.0 W 43 65 23 35 1015.7 - 0.2
02/09:37am 8.4 -3.2 5.7 83 1.2 WSW 56 74 30 40 1015.8 - 0.2
02/09:30am 7.9 -3.9 5.7 86 1.0 WSW 57 91 31 49 1015.2 - 0.2
02/09:28am 7.7 -4.1 5.7 87 0.9 WSW 57 102 31 55 1015.4 - 0.2
02/09:23am 8.1 -8.5 6.6 90 0.7 WSW 83 102 45 55 1014.7 - 0.2
02/09:15am 7.9 -8.6 6.7 92 0.6 SW 83 93 45 50 1014.2 - 0.0
02/09:00am 7.3 -3.1 6.2 93 0.5 W 50 93 27 50 1015.4 1015.5 25.6
02/08:57am 7.5 -2.8 6.4 93 0.5 W 50 107 27 58 1015.3 - 25.2
02/08:56am 7.2 -3.6 6.0 92 0.5 W 52 109 28 59 1015.2 - 25.2
02/08:52am 7.1 -7.9 5.7 91 0.6 WSW 74 115 40 62 1014.5 - 24.6
02/08:49am 7.1 -12.1 5.6 90 0.7 WSW 96 115 52 62 1013.7 - 24.4
02/08:38am 7.4 -13.8 5.4 87 0.9 SW 106 117 57 63 1012.5 - 24.2
02/08:33am 7.9 -8.7 5.4 84 1.1 W 82 106 44 57 1013.4 - 23.8
02/08:30am 9.0 -3.4 6.3 83 1.3 WSW 61 89 33 48 1013.9 - 23.6
02/08:28am 8.7 -4.2 6.0 83 1.2 WSW 63 89 34 48 1013.7 - 23.4
02/08:26am 8.7 -4.6 6.0 83 1.2 W 65 91 35 49 1013.5 - 23.4
02/08:12am 9.0 -8.9 5.4 78 1.6 SW 89 109 48 59 1012.5 - 23.4
02/08:03am 10.0 -1.4 6.7 80 1.6 WSW 56 76 30 41 1014.0 - 23.4
02/08:00am 10.0 -2.0 6.7 80 1.6 WSW 59 70 32 38 1014.0 - 23.4
02/07:30am 9.7 -4.0 5.9 77 1.8 WSW 67 85 36 46 1013.1 - 23.4
02/07:19am 10.2 -3.6 6.9 80 1.6 WSW 69 98 37 53 1013.1 - 23.4
02/07:16am 10.1 -3.3 7.0 81 1.5 WSW 67 98 36 53 1013.0 - 23.4
02/07:11am 9.9 -7.8 6.4 79 1.6 WSW 89 98 48 53 1012.2 - 23.4
02/07:09am 10.4 0.2 6.9 79 1.7 W 50 93 27 50 1013.1 - 23.4
02/07:00am 10.5 0.6 6.8 78 1.8 W 48 72 26 39 1013.5 - 23.4
02/06:30am 10.6 1.3 7.5 81 1.5 W 46 67 25 36 1013.2 - 23.4
02/06:00am 10.7 -1.6 6.8 77 1.9 WSW 61 82 33 44 1011.9 1012.0 23.4
02/05:46am 11.1 -1.9 7.0 76 2.0 WSW 65 83 35 45 1012.4 - 23.4
02/05:30am 11.1 -2.6 7.6 79 1.7 WSW 69 80 37 43 1012.5 - 23.4
02/05:23am 11.1 -2.5 8.0 81 1.5 WSW 69 78 37 42 1012.6 - 23.4
02/05:00am 11.5 1.8 7.6 77 1.9 W 48 67 26 36 1012.8 - 23.4
02/04:30am 11.0 0.5 7.3 78 1.8 W 52 72 28 39 1012.9 - 23.4
02/04:00am 11.3 0.7 8.3 82 1.5 W 54 85 29 46 1012.6 - 23.4
02/03:30am 10.8 1.6 9.4 91 0.7 WSW 48 76 26 41 1013.1 - 23.2
02/03:00am 10.2 0.7 9.9 98 0.2 W 50 80 27 43 1013.1 1013.2 23.2
02/02:53am 9.9 0.4 9.8 99 0.1 W 50 80 27 43 1013.2 - 23.2
02/02:35am 10.0 -3.3 9.9 99 0.1 W 70 95 38 51 1012.6 - 22.2
02/02:34am 10.2 1.5 10.0 99 0.1 W 46 95 25 51 1013.0 - 22.0
02/02:30am 10.7 2.7 10.5 99 0.1 W 43 61 23 33 1013.5 - 21.6
02/02:00am 10.2 1.1 9.9 98 0.2 W 48 67 26 36 1013.5 - 20.0
02/01:46am 10.4 1.3 9.9 97 0.3 W 48 87 26 47 1013.2 - 19.0
02/01:43am 10.4 2.1 9.9 97 0.3 W 44 87 24 47 1013.4 - 19.0
02/01:36am 10.5 -2.2 10.0 97 0.3 W 67 87 36 47 1012.8 - 18.4
02/01:33am 10.4 -2.3 9.9 97 0.3 W 67 82 36 44 1013.0 - 14.0
02/01:30am 10.3 1.5 9.7 96 0.3 W 46 76 25 41 1013.0 - 11.4
02/01:13am 9.5 -1.1 8.3 92 0.6 W 54 107 29 58 1013.4 - 6.4
02/01:10am 9.0 -6.3 7.8 92 0.6 WNW 78 128 42 69 1013.3 - 6.0
02/01:09am 9.0 -7.3 7.8 92 0.6 WNW 83 128 45 69 1012.8 - 5.8
02/01:06am 9.6 -6.4 8.0 90 0.8 WSW 82 128 44 69 1011.6 - 2.2
02/01:03am 10.1 -10.0 8.4 89 0.8 WSW 104 128 56 69 1011.0 - 0.8
02/01:00am 10.5 -5.6 8.4 87 1.0 WSW 83 106 45 57 1011.9 - 0.6
02/12:59am 11.0 -4.4 8.9 87 1.0 WSW 80 98 43 53 1012.4 - 0.6
02/12:57am 10.9 0.4 8.8 87 1.0 WSW 54 87 29 47 1013.0 - 0.6
02/12:52am 11.0 5.4 8.6 85 1.2 WNW 28 111 15 60 1013.5 - 0.2
02/12:30am 11.4 -0.1 8.6 83 1.4 WNW 59 106 32 57 1012.6 - 0.0
02/12:00am 11.2 -0.8 8.2 82 1.5 WNW 61 109 33 59 1013.1 1013.2 0.0
 
Date/Time
EST
Temp
°C
App
Temp
°C
Dew
Point
Rel
Hum
%
Delta-T
°C
Wind Press
QNH
hPa
Press
MSL
hPa
Rain
since 9 am
mm
Dir
 
Spd
km/h
Gust
km/h
Spd
kts
Gust
kts
01/11:30pm 11.3 -0.4 8.0 80 1.6 WNW 59 106 32 57 1013.0 - 0.0
01/11:06pm 11.3 0.9 7.8 79 1.7 W 52 96 28 52 1013.3 - 0.0
01/11:03pm 11.3 -3.3 7.8 79 1.7 WNW 74 96 40 52 1013.1 - 0.0
01/11:00pm 11.3 1.3 7.8 79 1.7 WNW 50 96 27 52 1013.4 - 0.0
01/10:56pm 11.3 2.4 7.8 79 1.7 W 44 100 24 54 1013.9 - 0.0
01/10:30pm 11.4 -1.5 7.7 78 1.8 WNW 65 95 35 51 1014.1 - 0.0
01/10:29pm 11.4 -2.4 7.7 78 1.8 W 70 98 38 53 1013.5 - 0.0
01/10:00pm 11.2 1.0 7.1 76 2.0 WNW 50 85 27 46 1014.7 - 0.0
01/09:47pm 11.2 2.7 7.1 76 2.0 NW 41 78 22 42 1014.9 - 0.0
01/09:45pm 11.2 7.7 7.3 77 1.9 NNE 15 65 8 35 1015.5 - 0.0
01/09:30pm 11.4 1.7 7.7 78 1.8 WNW 48 85 26 46 1015.3 - 0.0
01/09:00pm 11.3 2.4 7.0 75 2.1 WNW 43 76 23 41 1015.8 1015.9 0.0
01/08:34pm 11.4 4.9 6.7 73 2.2 WNW 30 85 16 46 1016.4 - 0.0
01/08:30pm 11.3 6.7 6.6 73 2.2 WNW 20 52 11 28 1016.9 - 0.0
01/08:00pm 11.3 7.8 7.0 75 2.1 NNW 15 39 8 21 1017.2 - 0.0
01/07:30pm 11.4 5.5 7.3 76 2.0 W 28 50 15 27 1017.5 - 0.0
01/07:00pm 11.6 4.3 7.3 75 2.1 W 35 70 19 38 1017.8 - 0.0
01/06:30pm 11.6 5.7 7.5 76 2.0 W 28 61 15 33 1018.2 - 0.0
01/06:18pm 11.6 3.2 7.5 76 2.0 W 41 63 22 34 1018.0 - 0.0
01/06:00pm 11.6 8.6 7.5 76 2.0 WNW 13 28 7 15 1018.4 1018.5 0.0
01/05:30pm 11.7 4.9 7.0 73 2.3 WNW 32 57 17 31 1018.3 - 0.0
01/05:00pm 11.6 5.4 6.3 70 2.5 W 28 50 15 27 1018.9 - 0.0
01/04:30pm 11.7 5.1 6.2 69 2.6 W 30 65 16 35 1019.0 - 0.0
01/04:00pm 11.6 5.3 5.9 68 2.7 WNW 28 54 15 29 1019.5 - 0.0
01/03:41pm 11.7 4.6 6.2 69 2.6 WNW 33 56 18 30 1019.6 - 0.0
01/03:30pm 12.0 7.5 6.3 68 2.7 WNW 19 48 10 26 1019.9 - 0.0
01/03:00pm 11.5 3.6 6.4 71 2.4 W 37 56 20 30 1019.8 1019.9 0.0
01/02:30pm 11.6 4.6 6.1 69 2.6 WNW 32 63 17 34 1020.1 - 0.0
01/02:00pm 11.6 3.7 6.3 70 2.5 WNW 37 61 20 33 1020.4 - 0.0
01/01:30pm 11.7 4.8 7.2 74 2.2 W 33 56 18 30 1021.0 - 0.0
01/01:00pm 11.7 5.1 7.6 76 2.0 W 32 59 17 32 1021.5 - 0.0
01/12:30pm 11.8 5.9 7.5 75 2.1 W 28 48 15 26 1022.0 - 0.0
01/12:02pm 11.8 5.5 7.3 74 2.2 NNW 30 54 16 29 1022.2 - 0.0
01/12:00pm 11.8 9.1 7.5 75 2.1 ENE 11 43 6 23 1022.5 1022.6 0.0
01/11:30am 11.6 7.8 7.7 77 1.9 WNW 17 33 9 18 1023.3 - 0.0
01/11:00am 11.2 7.1 8.6 84 1.3 NNW 20 44 11 24 1024.0 - 0.0
01/10:45am 11.2 5.7 9.1 87 1.1 NW 28 50 15 27 1024.3 - 0.0
01/10:30am 11.1 8.1 9.2 88 1.0 WNW 15 41 8 22 1024.5 - 0.0
01/10:00am 11.4 9.3 9.7 89 0.9 NNW 11 28 6 15 1024.6 - 0.0
01/09:30am 11.3 7.9 9.0 86 1.2 WNW 17 30 9 16 1024.7 - 0.0
01/09:00am 11.3 5.6 8.3 82 1.5 W 28 46 15 25 1024.6 1024.8 1.2
01/08:54am 11.3 5.5 8.0 80 1.6 W 28 46 15 25 1024.6 - 1.2
01/08:30am 11.2 5.4 8.1 81 1.5 W 28 44 15 24 1024.6 - 1.2
01/08:00am 11.0 5.1 8.9 87 1.0 W 30 43 16 23 1024.6 - 1.2
01/07:38am 11.0 5.2 9.3 89 0.9 W 30 50 16 27 1024.5 - 1.2
01/07:30am 10.6 5.4 9.0 90 0.8 W 26 37 14 20 1024.6 - 1.2
01/07:00am 10.5 4.9 8.8 89 0.8 W 28 37 15 20 1024.7 - 0.8
01/06:30am 11.0 7.1 9.3 89 0.9 W 20 32 11 17 1024.8 - 0.8

Other Formats:

Comma delimited format used in spreadsheet applications
http://www.bom.gov.au/fwo/IDV60801/IDV60801.94893.axf

JavaScript Object Notation format (JSON) in row-major order
http://www.bom.gov.au/fwo/IDV60801/IDV60801.94893.json